Time;durP1;ratioP1;P1;durP2;ratioP2;P2;SDS_P1;SDS_P2;PMS_P1;PMS_P2;Temp;Humidity;BMP_temperature;BMP_pressure;BME280_temperature;BME280_humidity;BME280_pressure;Samples;Min_cycle;Max_cycle;Signal;HPM_P1;HPM_P2
2024/03/27 00:01:14;;;;;;;;;;;10.00;48.80;;;;;;5089387;28;19916;-72
2024/03/27 00:03:39;;;;;;;;;;;10.00;49.10;;;;;;5090614;28;20450;-73
2024/03/27 00:06:05;;;;;;;;;;;10.00;49.40;;;;;;5090550;28;19908;-72
2024/03/27 00:08:31;;;;;;;;;;;9.90;49.00;;;;;;5089779;28;19952;-72
2024/03/27 00:10:57;;;;;;;;;;;9.90;49.30;;;;;;5089131;28;20458;-72
2024/03/27 00:13:23;;;;;;;;;;;9.80;49.70;;;;;;5089123;28;19915;-73
2024/03/27 00:15:49;;;;;;;;;;;9.70;50.50;;;;;;5089403;28;19908;-72
2024/03/27 00:18:14;;;;;;;;;;;9.70;49.50;;;;;;5088750;28;19908;-73
2024/03/27 00:20:40;;;;;;;;;;;9.80;49.00;;;;;;5090339;28;19958;-71
2024/03/27 00:23:05;;;;;;;;;;;9.90;48.60;;;;;;5089069;28;19912;-74
2024/03/27 00:25:31;;;;;;;;;;;10.00;48.20;;;;;;5087564;28;20026;-72
2024/03/27 00:27:56;;;;;;;;;;;10.00;48.50;;;;;;5090203;28;20390;-73
2024/03/27 00:30:22;;;;;;;;;;;10.00;48.50;;;;;;5089018;28;19914;-73
2024/03/27 00:32:48;;;;;;;;;;;10.30;48.10;;;;;;5087972;28;19912;-73
2024/03/27 00:35:13;;;;;;;;;;;10.40;47.90;;;;;;5090114;28;19995;-73
2024/03/27 00:37:39;;;;;;;;;;;10.60;47.70;;;;;;5089881;28;20292;-72
2024/03/27 00:40:04;;;;;;;;;;;10.70;47.50;;;;;;5070683;28;20011;-73
2024/03/27 00:42:30;;;;;;;;;;;10.80;47.10;;;;;;5064004;28;19914;-74
2024/03/27 00:44:55;;;;;;;;;;;10.90;47.10;;;;;;5051631;28;19908;-74
2024/03/27 00:47:21;;;;;;;;;;;11.00;47.20;;;;;;5051688;28;19962;-74
2024/03/27 00:49:47;;;;;;;;;;;11.00;47.30;;;;;;5069700;28;19905;-74
2024/03/27 00:52:13;;;;;;;;;;;11.10;47.50;;;;;;5051536;28;20392;-74
2024/03/27 00:54:39;;;;;;;;;;;11.00;47.50;;;;;;5069641;28;19951;-74
2024/03/27 00:57:05;;;;;;;;;;;10.90;47.80;;;;;;5051682;28;19939;-74
2024/03/27 00:59:32;;;;;;;;;;;10.90;47.80;;;;;;5069364;28;19966;-72
2024/03/27 01:01:57;;;;;;;;;;;10.80;47.90;;;;;;5069672;28;19923;-75
2024/03/27 01:04:23;;;;;;;;;;;10.80;48.30;;;;;;5069585;28;19939;-73
2024/03/27 01:06:48;;;;;;;;;;;10.80;48.90;;;;;;5051623;28;19908;-73
2024/03/27 01:09:14;;;;;;;;;;;10.90;49.10;;;;;;5051594;28;20377;-74
2024/03/27 01:11:40;;;;;;;;;;;10.80;49.40;;;;;;5051820;28;20432;-73
2024/03/27 01:14:05;;;;;;;;;;;10.70;49.30;;;;;;5069625;28;19912;-73
2024/03/27 01:16:32;;;;;;;;;;;10.70;49.50;;;;;;5069482;28;19915;-73
2024/03/27 01:18:57;;;;;;;;;;;10.70;49.70;;;;;;5051464;28;19913;-73
2024/03/27 01:21:23;;;;;;;;;;;10.70;49.70;;;;;;5051363;28;20057;-72
2024/03/27 01:23:49;;;;;;;;;;;10.70;49.80;;;;;;5051654;28;19966;-73
2024/03/27 01:26:15;;;;;;;;;;;10.70;49.80;;;;;;5069421;28;19932;-72
2024/03/27 01:28:40;;;;;;;;;;;10.60;50.30;;;;;;5051177;28;19994;-72
2024/03/27 01:31:06;;;;;;;;;;;10.60;50.50;;;;;;5051740;28;19912;-73
2024/03/27 01:33:31;;;;;;;;;;;10.60;50.50;;;;;;5069885;28;19909;-73
2024/03/27 01:35:57;;;;;;;;;;;10.60;50.70;;;;;;5051643;28;20408;-71
2024/03/27 01:38:22;;;;;;;;;;;10.60;51.00;;;;;;5069294;28;19995;-73
2024/03/27 01:40:48;;;;;;;;;;;10.50;51.40;;;;;;5051426;28;19916;-73
2024/03/27 01:43:13;;;;;;;;;;;10.60;52.20;;;;;;5069745;28;20391;-73
2024/03/27 01:45:39;;;;;;;;;;;10.70;52.30;;;;;;5064190;28;20296;-72
2024/03/27 01:48:05;;;;;;;;;;;10.70;52.30;;;;;;5069316;28;20125;-74
2024/03/27 01:50:30;;;;;;;;;;;10.70;52.10;;;;;;5069414;28;20290;-72
2024/03/27 01:52:57;;;;;;;;;;;10.70;52.40;;;;;;5051318;28;19919;-72
2024/03/27 01:55:23;;;;;;;;;;;10.70;52.50;;;;;;5069338;28;19956;-74
2024/03/27 01:57:49;;;;;;;;;;;10.70;52.30;;;;;;5050845;28;19909;-73
2024/03/27 02:00:15;;;;;;;;;;;10.70;52.20;;;;;;5069234;28;19919;-73
2024/03/27 02:02:40;;;;;;;;;;;10.80;51.90;;;;;;5068951;28;19911;-72
2024/03/27 02:05:07;;;;;;;;;;;10.90;51.70;;;;;;5072643;28;20418;-73
2024/03/27 02:07:32;;;;;;;;;;;10.80;52.00;;;;;;5054770;28;19934;-73
2024/03/27 02:09:58;;;;;;;;;;;10.80;52.10;;;;;;5054570;28;19904;-73
2024/03/27 02:12:24;;;;;;;;;;;10.80;52.00;;;;;;5055109;28;19961;-73
2024/03/27 02:14:49;;;;;;;;;;;10.70;52.30;;;;;;5072700;28;20368;-72
2024/03/27 02:17:15;;;;;;;;;;;10.70;52.80;;;;;;5072673;28;19910;-72
2024/03/27 02:19:41;;;;;;;;;;;10.70;52.70;;;;;;5072614;28;20003;-72
2024/03/27 02:22:06;;;;;;;;;;;10.80;53.20;;;;;;5072418;28;19909;-72
2024/03/27 02:24:36;;;;;;;;;;;10.80;53.30;;;;;;5054557;28;20435;-74
2024/03/27 02:27:01;;;;;;;;;;;10.70;53.60;;;;;;5054320;28;19912;-74
2024/03/27 02:29:27;;;;;;;;;;;10.60;54.20;;;;;;5072064;28;19908;-71
2024/03/27 02:31:52;;;;;;;;;;;10.50;54.80;;;;;;5072252;28;20534;-73
2024/03/27 02:34:18;;;;;;;;;;;10.50;55.40;;;;;;5053919;28;20403;-71
2024/03/27 02:36:43;;;;;;;;;;;10.50;56.20;;;;;;5054140;28;20353;-74
2024/03/27 02:39:09;;;;;;;;;;;10.40;56.80;;;;;;5071683;28;19977;-73
2024/03/27 02:41:35;;;;;;;;;;;10.30;57.80;;;;;;5071936;28;20289;-73
2024/03/27 02:44:00;;;;;;;;;;;10.10;58.60;;;;;;5071823;28;19912;-72
2024/03/27 02:46:26;;;;;;;;;;;10.00;58.90;;;;;;5066398;28;19909;-73
2024/03/27 02:48:51;;;;;;;;;;;10.00;59.00;;;;;;5071847;28;19908;-72
2024/03/27 02:51:17;;;;;;;;;;;9.90;58.20;;;;;;5071791;28;19904;-73
2024/03/27 02:53:42;;;;;;;;;;;10.00;57.90;;;;;;5053801;28;19911;-73
2024/03/27 02:56:08;;;;;;;;;;;10.00;58.00;;;;;;5071654;28;19904;-73
2024/03/27 02:58:33;;;;;;;;;;;10.00;57.70;;;;;;5054014;28;19908;-72
2024/03/27 03:00:59;;;;;;;;;;;10.00;58.20;;;;;;5053373;28;19916;-74
2024/03/27 03:03:24;;;;;;;;;;;10.00;58.90;;;;;;5071520;28;19962;-74
2024/03/27 03:05:50;;;;;;;;;;;10.20;57.70;;;;;;5053481;28;19983;-74
2024/03/27 03:08:16;;;;;;;;;;;10.20;58.40;;;;;;5071394;28;19912;-73
2024/03/27 03:10:41;;;;;;;;;;;10.20;58.60;;;;;;5053444;28;19978;-72
2024/03/27 03:13:07;;;;;;;;;;;10.30;59.30;;;;;;5071409;28;19908;-73
2024/03/27 03:15:32;;;;;;;;;;;10.20;59.70;;;;;;5071110;28;20648;-72
2024/03/27 03:17:58;;;;;;;;;;;10.10;60.00;;;;;;5071193;28;19908;-74
2024/03/27 03:20:23;;;;;;;;;;;10.10;60.70;;;;;;5070999;28;19912;-73
2024/03/27 03:22:52;;;;;;;;;;;10.20;61.10;;;;;;5071209;28;19939;-72
2024/03/27 03:25:18;;;;;;;;;;;10.00;61.80;;;;;;5071277;28;19904;-73
2024/03/27 03:27:43;;;;;;;;;;;10.00;63.00;;;;;;5070887;28;20382;-73
2024/03/27 03:30:09;;;;;;;;;;;10.00;62.90;;;;;;5070922;28;19957;-72
2024/03/27 03:32:34;;;;;;;;;;;10.10;63.10;;;;;;5070909;28;19904;-73
2024/03/27 03:35:00;;;;;;;;;;;10.10;63.30;;;;;;5070954;28;20005;-72
2024/03/27 03:37:26;;;;;;;;;;;10.10;63.80;;;;;;5052899;28;20357;-73
2024/03/27 03:39:51;;;;;;;;;;;9.90;64.00;;;;;;5084247;28;20392;-72
2024/03/27 03:42:17;;;;;;;;;;;10.00;64.10;;;;;;5089742;28;20315;-73
2024/03/27 03:44:42;;;;;;;;;;;10.00;64.50;;;;;;5089650;28;19904;-73
2024/03/27 03:47:08;;;;;;;;;;;10.00;64.50;;;;;;5091031;28;19989;-73
2024/03/27 03:49:33;;;;;;;;;;;10.10;64.20;;;;;;5084444;28;19974;-72
2024/03/27 03:51:59;;;;;;;;;;;10.10;64.20;;;;;;5090977;28;19927;-72
2024/03/27 03:54:24;;;;;;;;;;;10.10;64.20;;;;;;5090876;28;19908;-73
2024/03/27 03:56:50;;;;;;;;;;;10.10;64.50;;;;;;5089367;28;19908;-72
2024/03/27 03:59:15;;;;;;;;;;;10.20;64.40;;;;;;5090663;28;19912;-73
2024/03/27 04:01:41;;;;;;;;;;;10.00;64.90;;;;;;5090616;28;19907;-73
2024/03/27 04:04:07;;;;;;;;;;;9.90;65.90;;;;;;5090709;28;19987;-72
2024/03/27 04:06:32;;;;;;;;;;;9.80;66.80;;;;;;5091218;28;19908;-72
2024/03/27 04:08:58;;;;;;;;;;;9.70;67.00;;;;;;5090846;28;20374;-74
2024/03/27 04:11:23;;;;;;;;;;;9.60;67.30;;;;;;5090989;28;19927;-74
2024/03/27 04:13:50;;;;;;;;;;;9.70;66.70;;;;;;5090761;28;20288;-73
2024/03/27 04:16:16;;;;;;;;;;;9.90;65.50;;;;;;5089613;28;19965;-73
2024/03/27 04:18:41;;;;;;;;;;;10.00;65.10;;;;;;5089376;28;19907;-73
2024/03/27 04:21:07;;;;;;;;;;;9.80;65.40;;;;;;5091109;28;19916;-73
2024/03/27 04:23:33;;;;;;;;;;;10.00;64.90;;;;;;5094675;28;19912;-78
2024/03/27 04:25:58;;;;;;;;;;;10.20;64.80;;;;;;5097580;28;19930;-72
2024/03/27 04:28:24;;;;;;;;;;;10.10;64.50;;;;;;5091389;28;20002;-73
2024/03/27 04:30:49;;;;;;;;;;;10.00;64.80;;;;;;5089421;28;19965;-73
2024/03/27 04:33:16;;;;;;;;;;;10.00;65.10;;;;;;5090697;28;19915;-74
2024/03/27 04:35:41;;;;;;;;;;;10.10;65.00;;;;;;5090560;28;19950;-74
2024/03/27 04:38:07;;;;;;;;;;;10.10;64.70;;;;;;5085470;28;20423;-74
2024/03/27 04:40:32;;;;;;;;;;;10.10;64.90;;;;;;5069862;28;19959;-73
2024/03/27 04:42:58;;;;;;;;;;;10.10;64.90;;;;;;5052028;28;20391;-74
2024/03/27 04:45:23;;;;;;;;;;;10.10;64.80;;;;;;5069932;28;20332;-74
2024/03/27 04:47:49;;;;;;;;;;;10.20;64.50;;;;;;5069714;28;19930;-74
2024/03/27 04:50:14;;;;;;;;;;;10.30;64.30;;;;;;5069571;28;20305;-74
2024/03/27 04:52:40;;;;;;;;;;;10.30;64.30;;;;;;5064092;28;19947;-73
2024/03/27 04:55:06;;;;;;;;;;;10.10;64.90;;;;;;5069838;28;19912;-74
2024/03/27 04:57:32;;;;;;;;;;;10.20;64.80;;;;;;5051088;28;20357;-74
2024/03/27 04:59:58;;;;;;;;;;;10.10;65.30;;;;;;5069635;28;20023;-73
2024/03/27 05:02:23;;;;;;;;;;;10.10;65.10;;;;;;5051600;28;19991;-74
2024/03/27 05:04:49;;;;;;;;;;;10.20;65.10;;;;;;5051650;28;20478;-74
2024/03/27 05:07:15;;;;;;;;;;;10.10;65.20;;;;;;5051407;28;19991;-73
2024/03/27 05:09:40;;;;;;;;;;;10.00;65.70;;;;;;5051775;28;19943;-74
2024/03/27 05:12:06;;;;;;;;;;;10.10;65.40;;;;;;5051556;28;20368;-74
2024/03/27 05:14:31;;;;;;;;;;;10.00;65.60;;;;;;5069813;28;20273;-74
2024/03/27 05:16:57;;;;;;;;;;;10.10;65.70;;;;;;5069601;28;19950;-73
2024/03/27 05:19:23;;;;;;;;;;;10.20;64.90;;;;;;5069444;28;19911;-74
2024/03/27 05:21:49;;;;;;;;;;;10.30;64.50;;;;;;5069802;28;19955;-74
2024/03/27 05:24:15;;;;;;;;;;;10.20;64.60;;;;;;5051553;28;19940;-74
2024/03/27 05:26:40;;;;;;;;;;;10.10;65.10;;;;;;5051438;28;19930;-74
2024/03/27 05:29:06;;;;;;;;;;;10.10;65.90;;;;;;5069608;28;19912;-73
2024/03/27 05:31:31;;;;;;;;;;;10.10;66.30;;;;;;5069422;28;20272;-74
2024/03/27 05:33:58;;;;;;;;;;;10.10;68.00;;;;;;5051538;28;19932;-73
2024/03/27 05:36:24;;;;;;;;;;;9.80;71.40;;;;;;5051224;28;20014;-74
2024/03/27 05:38:49;;;;;;;;;;;9.50;74.90;;;;;;5070960;28;20099;-74
2024/03/27 05:41:15;;;;;;;;;;;9.20;78.20;;;;;;5055097;28;19912;-74
2024/03/27 05:43:41;;;;;;;;;;;9.20;79.70;;;;;;5077962;28;19908;-78
2024/03/27 05:46:06;;;;;;;;;;;9.20;78.70;;;;;;5059382;28;19962;-74
2024/03/27 05:48:32;;;;;;;;;;;9.20;79.60;;;;;;5055670;28;19908;-74
2024/03/27 05:50:57;;;;;;;;;;;9.30;79.30;;;;;;5079427;28;20022;-74
2024/03/27 05:53:23;;;;;;;;;;;9.30;79.10;;;;;;5078564;28;19904;-72
2024/03/27 05:55:58;;;;;;;;;;;9.30;78.80;;;;;;5075500;28;19915;-74
2024/03/27 05:58:24;;;;;;;;;;;9.30;77.20;;;;;;5055154;28;19908;-74
2024/03/27 06:00:49;;;;;;;;;;;9.40;76.80;;;;;;5055068;28;19916;-74
2024/03/27 06:03:15;;;;;;;;;;;9.60;76.60;;;;;;5072742;28;19905;-74
2024/03/27 06:05:41;;;;;;;;;;;9.60;74.60;;;;;;5054642;28;20381;-74
2024/03/27 06:08:06;;;;;;;;;;;9.80;74.40;;;;;;5072773;28;20658;-74
2024/03/27 06:10:32;;;;;;;;;;;9.80;73.70;;;;;;5072722;28;19905;-73
2024/03/27 06:12:58;;;;;;;;;;;9.80;72.60;;;;;;5072669;28;19909;-74
2024/03/27 06:15:25;;;;;;;;;;;9.90;72.20;;;;;;5054799;28;19927;-72
2024/03/27 06:17:54;;;;;;;;;;;9.90;71.80;;;;;;5054717;28;19911;-73
2024/03/27 06:20:19;;;;;;;;;;;9.90;71.10;;;;;;5054821;28;19916;-74
2024/03/27 06:22:45;;;;;;;;;;;10.00;71.10;;;;;;5072092;28;20411;-73
2024/03/27 06:25:10;;;;;;;;;;;10.00;70.90;;;;;;5054768;28;19908;-73
2024/03/27 06:27:36;;;;;;;;;;;10.00;71.00;;;;;;5053946;28;19924;-74
2024/03/27 06:30:01;;;;;;;;;;;10.00;70.80;;;;;;5054170;28;19908;-74
2024/03/27 06:32:27;;;;;;;;;;;9.90;70.70;;;;;;5054286;28;19905;-75
2024/03/27 06:34:52;;;;;;;;;;;10.00;70.40;;;;;;5072138;28;19909;-74
2024/03/27 06:37:18;;;;;;;;;;;10.10;70.40;;;;;;5072166;28;19942;-75
2024/03/27 06:39:43;;;;;;;;;;;10.10;69.90;;;;;;5071911;28;19932;-73
2024/03/27 06:42:09;;;;;;;;;;;10.20;69.70;;;;;;5053921;28;19905;-73
2024/03/27 06:44:35;;;;;;;;;;;10.20;69.60;;;;;;5054258;28;19912;-72
2024/03/27 06:47:00;;;;;;;;;;;10.20;69.40;;;;;;5071942;28;19977;-72
2024/03/27 06:49:35;;;;;;;;;;;10.30;68.90;;;;;;5071346;28;19912;-74
2024/03/27 06:52:00;;;;;;;;;;;10.40;68.60;;;;;;5071966;28;19910;-74
2024/03/27 06:54:26;;;;;;;;;;;10.60;67.60;;;;;;5071917;28;20003;-73
2024/03/27 06:56:52;;;;;;;;;;;10.60;67.40;;;;;;5071466;28;19911;-72
2024/03/27 06:59:17;;;;;;;;;;;10.60;67.50;;;;;;5053740;28;19908;-74
2024/03/27 07:01:43;;;;;;;;;;;10.60;67.50;;;;;;5071659;28;20384;-75
2024/03/27 07:04:09;;;;;;;;;;;10.90;66.70;;;;;;5053605;28;19908;-73
2024/03/27 07:06:35;;;;;;;;;;;10.90;65.80;;;;;;5071235;28;19954;-74
2024/03/27 07:09:00;;;;;;;;;;;11.00;65.20;;;;;;5071467;28;20305;-75
2024/03/27 07:11:26;;;;;;;;;;;11.20;64.30;;;;;;5071313;28;19955;-74
2024/03/27 07:13:51;;;;;;;;;;;11.40;62.40;;;;;;5071362;28;20721;-75
2024/03/27 07:16:17;;;;;;;;;;;11.50;61.30;;;;;;5053389;28;20755;-74
2024/03/27 07:18:42;;;;;;;;;;;11.60;59.40;;;;;;5053420;28;19905;-74
2024/03/27 07:21:08;;;;;;;;;;;11.70;59.10;;;;;;5071277;28;20007;-73
2024/03/27 07:23:34;;;;;;;;;;;11.90;57.90;;;;;;5053513;28;19983;-73
2024/03/27 07:26:04;;;;;;;;;;;12.00;56.40;;;;;;5071672;28;19908;-73
2024/03/27 07:28:30;;;;;;;;;;;11.80;57.30;;;;;;5053533;28;20365;-74
2024/03/27 07:30:55;;;;;;;;;;;11.70;57.50;;;;;;5052947;28;19904;-74
2024/03/27 07:33:21;;;;;;;;;;;11.70;57.40;;;;;;5070776;28;19938;-73
2024/03/27 07:35:46;;;;;;;;;;;11.80;57.20;;;;;;5071045;28;19912;-75
2024/03/27 07:38:12;;;;;;;;;;;11.80;57.30;;;;;;5056342;28;19922;-75
2024/03/27 07:40:37;;;;;;;;;;;11.80;57.10;;;;;;5091108;28;19916;-74
2024/03/27 07:43:03;;;;;;;;;;;11.90;57.40;;;;;;5089598;28;19908;-73
2024/03/27 07:45:29;;;;;;;;;;;11.70;57.20;;;;;;5091005;28;19915;-74
2024/03/27 07:47:54;;;;;;;;;;;11.70;57.30;;;;;;5089465;28;19907;-74
2024/03/27 07:50:20;;;;;;;;;;;11.70;57.80;;;;;;5091109;28;19904;-72
2024/03/27 07:52:46;;;;;;;;;;;11.80;57.40;;;;;;5091511;28;20458;-74
2024/03/27 07:55:13;;;;;;;;;;;11.60;58.10;;;;;;5089569;28;20314;-73
2024/03/27 07:57:38;;;;;;;;;;;11.80;57.40;;;;;;5090647;28;20433;-76
2024/03/27 08:00:04;;;;;;;;;;;11.80;57.40;;;;;;5089017;28;19920;-75
2024/03/27 08:02:30;;;;;;;;;;;11.90;57.20;;;;;;5088609;28;19908;-75
2024/03/27 08:04:58;;;;;;;;;;;12.20;57.00;;;;;;5090694;28;19908;-76
2024/03/27 08:07:23;;;;;;;;;;;12.40;55.80;;;;;;5088913;28;19908;-73
2024/03/27 08:09:52;;;;;;;;;;;12.50;56.00;;;;;;5090533;28;19908;-75
2024/03/27 08:12:18;;;;;;;;;;;12.60;56.00;;;;;;5090567;28;19904;-74
2024/03/27 08:14:44;;;;;;;;;;;12.60;55.40;;;;;;5090223;28;20352;-74
2024/03/27 08:17:10;;;;;;;;;;;12.70;55.70;;;;;;5089142;28;20439;-73
2024/03/27 08:19:40;;;;;;;;;;;12.90;55.00;;;;;;5090183;28;19911;-72
2024/03/27 08:22:06;;;;;;;;;;;12.90;54.90;;;;;;5090110;28;19904;-74
2024/03/27 08:24:31;;;;;;;;;;;12.80;55.10;;;;;;5088790;28;20015;-73
2024/03/27 08:26:57;;;;;;;;;;;12.80;54.90;;;;;;5090149;28;19904;-74
2024/03/27 08:29:22;;;;;;;;;;;12.70;55.10;;;;;;5088761;28;19935;-75
2024/03/27 08:31:48;;;;;;;;;;;12.70;55.30;;;;;;5090131;28;19950;-72
2024/03/27 08:34:14;;;;;;;;;;;12.50;55.40;;;;;;5090133;28;19981;-72
2024/03/27 08:36:39;;;;;;;;;;;12.50;56.00;;;;;;5088870;28;20387;-74
2024/03/27 08:39:07;;;;;;;;;;;12.60;56.20;;;;;;5079221;28;19969;-74
2024/03/27 08:41:32;;;;;;;;;;;12.90;55.60;;;;;;5051634;28;20582;-73
2024/03/27 08:43:58;;;;;;;;;;;12.90;55.40;;;;;;5070064;28;20027;-74
2024/03/27 08:46:23;;;;;;;;;;;13.10;54.90;;;;;;5069776;28;19934;-72
2024/03/27 08:48:50;;;;;;;;;;;12.90;54.90;;;;;;5069267;28;19943;-72
2024/03/27 08:51:16;;;;;;;;;;;13.00;54.90;;;;;;5069530;28;19931;-72
2024/03/27 08:53:42;;;;;;;;;;;12.90;55.20;;;;;;5069628;28;20377;-74
2024/03/27 08:56:07;;;;;;;;;;;12.80;55.40;;;;;;5069651;28;20003;-74
2024/03/27 08:58:33;;;;;;;;;;;12.70;56.50;;;;;;5050982;28;20007;-72
2024/03/27 09:00:58;;;;;;;;;;;12.80;56.10;;;;;;5069440;28;20008;-72
2024/03/27 09:03:24;;;;;;;;;;;12.70;56.70;;;;;;5051465;28;20011;-73
2024/03/27 09:05:49;;;;;;;;;;;12.70;57.30;;;;;;5069665;28;19983;-73
2024/03/27 09:08:15;;;;;;;;;;;12.60;58.70;;;;;;5051620;28;19935;-75
2024/03/27 09:10:40;;;;;;;;;;;12.70;59.10;;;;;;5051332;28;19908;-73
2024/03/27 09:13:06;;;;;;;;;;;12.80;60.30;;;;;;5053846;28;19913;-72
2024/03/27 09:15:31;;;;;;;;;;;12.80;60.30;;;;;;5073620;28;19988;-73
2024/03/27 09:17:57;;;;;;;;;;;12.80;60.30;;;;;;5055854;28;19990;-73
2024/03/27 09:20:23;;;;;;;;;;;12.90;60.40;;;;;;5055505;28;19966;-73
2024/03/27 09:22:48;;;;;;;;;;;13.10;60.00;;;;;;5055302;28;19954;-73
2024/03/27 09:25:14;;;;;;;;;;;13.20;59.60;;;;;;5073668;28;19912;-75
2024/03/27 09:27:39;;;;;;;;;;;13.20;59.30;;;;;;5073618;28;20395;-72
2024/03/27 09:30:05;;;;;;;;;;;13.30;58.60;;;;;;5073432;28;20379;-73
2024/03/27 09:32:30;;;;;;;;;;;13.30;58.50;;;;;;5055882;28;19912;-73
2024/03/27 09:34:56;;;;;;;;;;;13.30;58.40;;;;;;5073695;28;19912;-72
2024/03/27 09:37:21;;;;;;;;;;;13.30;58.60;;;;;;5055313;28;19911;-73
2024/03/27 09:39:47;;;;;;;;;;;13.20;58.80;;;;;;5072978;28;19921;-73
2024/03/27 09:42:13;;;;;;;;;;;13.30;59.30;;;;;;5055236;28;19909;-73
2024/03/27 09:44:38;;;;;;;;;;;13.40;59.40;;;;;;5073227;28;20666;-73
2024/03/27 09:47:05;;;;;;;;;;;13.50;59.00;;;;;;5072996;28;19912;-72
2024/03/27 09:49:30;;;;;;;;;;;13.70;59.20;;;;;;5072869;28;19909;-73
2024/03/27 09:51:56;;;;;;;;;;;13.80;58.70;;;;;;5055164;28;20462;-74
2024/03/27 09:54:23;;;;;;;;;;;14.10;59.20;;;;;;5073096;28;19927;-74
2024/03/27 09:56:48;;;;;;;;;;;14.70;58.00;;;;;;5072921;28;19909;-74
2024/03/27 09:59:14;;;;;;;;;;;15.00;58.20;;;;;;5072595;28;19928;-74
2024/03/27 10:01:41;;;;;;;;;;;15.30;57.40;;;;;;5054380;28;19921;-72
2024/03/27 10:04:08;;;;;;;;;;;15.50;56.30;;;;;;5054763;28;19912;-74
2024/03/27 10:06:34;;;;;;;;;;;15.60;55.70;;;;;;5055777;28;19912;-73
2024/03/27 10:09:00;;;;;;;;;;;15.30;57.00;;;;;;5054654;28;20305;-73
2024/03/27 10:11:25;;;;;;;;;;;15.10;57.70;;;;;;5054106;28;19922;-73
2024/03/27 10:13:51;;;;;;;;;;;15.00;57.90;;;;;;5054520;28;20356;-74
2024/03/27 10:16:17;;;;;;;;;;;14.80;58.60;;;;;;5054629;28;19909;-74
2024/03/27 10:18:42;;;;;;;;;;;14.60;59.60;;;;;;5054488;28;20410;-72
2024/03/27 10:21:08;;;;;;;;;;;14.60;60.30;;;;;;5066686;28;19918;-72
2024/03/27 10:23:34;;;;;;;;;;;14.50;62.20;;;;;;5071490;28;19934;-73
2024/03/27 10:26:03;;;;;;;;;;;14.40;63.50;;;;;;5054000;28;20361;-73
2024/03/27 10:28:35;;;;;;;;;;;14.20;63.40;;;;;;5054328;28;19949;-72
2024/03/27 10:31:02;;;;;;;;;;;14.20;64.40;;;;;;5072096;28;19927;-73
2024/03/27 10:33:28;;;;;;;;;;;14.00;65.80;;;;;;5072082;28;19908;-72
2024/03/27 10:35:53;;;;;;;;;;;13.80;66.50;;;;;;5054077;28;20292;-72
2024/03/27 10:38:20;;;;;;;;;;;13.60;67.30;;;;;;5059587;28;19923;-73
2024/03/27 10:40:47;;;;;;;;;;;13.60;68.30;;;;;;5091002;28;19981;-74
2024/03/27 10:43:22;;;;;;;;;;;13.60;68.40;;;;;;5091996;28;19934;-73
2024/03/27 10:45:49;;;;;;;;;;;13.60;68.50;;;;;;5090572;28;19911;-73
2024/03/27 10:48:15;;;;;;;;;;;13.60;69.00;;;;;;5092809;28;19908;-73
2024/03/27 10:50:41;;;;;;;;;;;13.60;69.00;;;;;;5090820;28;20392;-73
2024/03/27 10:53:07;;;;;;;;;;;13.60;69.30;;;;;;5090531;28;19915;-73
2024/03/27 10:55:37;;;;;;;;;;;13.70;69.60;;;;;;5091954;28;19904;-74
2024/03/27 10:58:03;;;;;;;;;;;13.80;69.50;;;;;;5091907;28;19908;-73
2024/03/27 11:00:30;;;;;;;;;;;13.80;69.40;;;;;;5091677;28;20019;-74
2024/03/27 11:02:57;;;;;;;;;;;14.00;70.10;;;;;;5090578;28;20002;-72
2024/03/27 11:05:26;;;;;;;;;;;14.20;68.00;;;;;;5090307;28;19908;-74
2024/03/27 11:07:53;;;;;;;;;;;14.30;67.40;;;;;;5089978;28;19911;-73
2024/03/27 11:10:22;;;;;;;;;;;14.30;67.40;;;;;;5090287;28;20300;-71
2024/03/27 11:12:48;;;;;;;;;;;14.40;67.50;;;;;;5091585;28;19954;-74
2024/03/27 11:15:17;;;;;;;;;;;14.50;67.40;;;;;;5091530;28;19998;-73
2024/03/27 11:17:49;;;;;;;;;;;14.50;67.60;;;;;;5090141;28;19908;-72
2024/03/27 11:20:15;;;;;;;;;;;14.70;66.70;;;;;;5084675;28;19919;-73
2024/03/27 11:22:47;;;;;;;;;;;15.00;66.30;;;;;;5089713;28;19908;-74
2024/03/27 11:25:13;;;;;;;;;;;15.20;66.30;;;;;;5091211;28;20424;-73
2024/03/27 11:27:39;;;;;;;;;;;15.30;65.30;;;;;;5091209;28;20022;-72
2024/03/27 11:30:04;;;;;;;;;;;15.50;65.70;;;;;;5091264;28;19914;-74
2024/03/27 11:32:33;;;;;;;;;;;15.70;65.70;;;;;;5089793;28;20310;-73
2024/03/27 11:35:00;;;;;;;;;;;15.90;64.30;;;;;;5089729;28;19908;-73
2024/03/27 11:37:26;;;;;;;;;;;16.10;63.40;;;;;;5089914;28;19957;-74
2024/03/27 11:39:52;;;;;;;;;;;16.30;63.30;;;;;;5089284;28;20658;-72
2024/03/27 11:42:17;;;;;;;;;;;16.10;63.20;;;;;;5090919;28;19908;-72
2024/03/27 11:44:44;;;;;;;;;;;16.10;63.40;;;;;;5090722;28;19947;-73
2024/03/27 11:47:10;;;;;;;;;;;15.90;64.30;;;;;;5090360;28;19999;-73
2024/03/27 11:49:36;;;;;;;;;;;15.80;64.90;;;;;;5090623;28;20023;-73
2024/03/27 11:52:02;;;;;;;;;;;15.70;64.80;;;;;;5091454;28;19907;-74
2024/03/27 11:54:28;;;;;;;;;;;15.60;65.10;;;;;;5090772;28;19962;-74
2024/03/27 11:56:54;;;;;;;;;;;15.50;66.10;;;;;;5090776;28;20264;-72
2024/03/27 11:59:19;;;;;;;;;;;15.40;66.10;;;;;;5089538;28;19943;-74
2024/03/27 12:01:45;;;;;;;;;;;15.30;66.30;;;;;;5090577;28;19965;-74
2024/03/27 12:04:12;;;;;;;;;;;15.30;67.10;;;;;;5090724;28;20443;-73
2024/03/27 12:06:39;;;;;;;;;;;15.30;66.70;;;;;;5090568;28;19908;-73
2024/03/27 12:09:04;;;;;;;;;;;15.30;66.80;;;;;;5090532;28;19908;-73
2024/03/27 12:11:30;;;;;;;;;;;15.20;66.80;;;;;;5088838;28;19934;-73
2024/03/27 12:13:56;;;;;;;;;;;15.20;67.50;;;;;;5089311;28;19927;-74
2024/03/27 12:16:21;;;;;;;;;;;15.30;67.80;;;;;;5088817;28;19991;-73
2024/03/27 12:18:47;;;;;;;;;;;15.30;67.80;;;;;;5090491;28;20269;-74
2024/03/27 12:21:14;;;;;;;;;;;15.50;67.50;;;;;;5090279;28;19920;-73
2024/03/27 12:23:43;;;;;;;;;;;15.60;67.80;;;;;;5090338;28;20469;-74
2024/03/27 12:26:15;;;;;;;;;;;15.70;67.20;;;;;;5090684;28;19911;-74
2024/03/27 12:28:42;;;;;;;;;;;15.80;66.90;;;;;;5088980;28;19904;-73
2024/03/27 12:31:09;;;;;;;;;;;15.80;67.60;;;;;;5089074;28;19950;-73
2024/03/27 12:33:35;;;;;;;;;;;15.70;67.70;;;;;;5090273;28;19915;-73
2024/03/27 12:36:00;;;;;;;;;;;15.80;67.90;;;;;;5090184;28;19907;-73
2024/03/27 12:38:26;;;;;;;;;;;15.80;67.80;;;;;;5083906;28;20021;-74
2024/03/27 12:40:51;;;;;;;;;;;15.80;68.30;;;;;;5051946;28;19916;-73
2024/03/27 12:43:17;;;;;;;;;;;15.80;68.70;;;;;;5069874;28;20374;-73
2024/03/27 12:45:43;;;;;;;;;;;15.80;70.00;;;;;;5069426;28;19908;-72
2024/03/27 12:48:11;;;;;;;;;;;15.90;70.80;;;;;;5069453;28;19904;-73
2024/03/27 12:50:37;;;;;;;;;;;16.10;71.40;;;;;;5069846;28;19919;-73
2024/03/27 12:53:03;;;;;;;;;;;16.30;72.00;;;;;;5070164;28;19908;-75
2024/03/27 12:55:29;;;;;;;;;;;16.60;70.20;;;;;;5069562;28;19912;-72
2024/03/27 12:57:55;;;;;;;;;;;16.70;69.50;;;;;;5051345;28;19909;-73
2024/03/27 13:00:21;;;;;;;;;;;16.70;69.70;;;;;;5069460;28;19921;-74
2024/03/27 13:02:46;;;;;;;;;;;16.80;69.80;;;;;;5069897;28;19912;-74
2024/03/27 13:05:12;;;;;;;;;;;16.80;70.20;;;;;;5051483;28;19911;-73
2024/03/27 13:07:37;;;;;;;;;;;17.00;69.30;;;;;;5051410;28;20006;-74
2024/03/27 13:10:03;;;;;;;;;;;17.10;69.20;;;;;;5051537;28;19966;-73
2024/03/27 13:12:29;;;;;;;;;;;17.00;69.60;;;;;;5069634;28;20441;-72
2024/03/27 13:14:54;;;;;;;;;;;17.00;69.30;;;;;;5051608;28;19954;-73
2024/03/27 13:17:21;;;;;;;;;;;16.80;70.10;;;;;;5051622;28;19969;-73
2024/03/27 13:19:47;;;;;;;;;;;16.70;71.10;;;;;;5051454;28;19922;-72
2024/03/27 13:22:13;;;;;;;;;;;16.60;71.70;;;;;;5069447;28;19904;-73
2024/03/27 13:24:38;;;;;;;;;;;16.60;71.60;;;;;;5051392;28;19905;-73
2024/03/27 13:27:04;;;;;;;;;;;16.60;71.80;;;;;;5069515;28;19950;-73
2024/03/27 13:29:30;;;;;;;;;;;16.40;72.30;;;;;;5069197;28;19904;-74
2024/03/27 13:31:55;;;;;;;;;;;16.20;73.30;;;;;;5069279;28;19908;-74
2024/03/27 13:34:21;;;;;;;;;;;16.10;74.00;;;;;;5069203;28;20368;-74
2024/03/27 13:36:47;;;;;;;;;;;16.10;74.20;;;;;;5050850;28;20388;-72
2024/03/27 13:39:12;;;;;;;;;;;16.00;75.10;;;;;;5068908;28;19921;-73
2024/03/27 13:41:38;;;;;;;;;;;16.00;75.70;;;;;;5069060;28;19916;-73
2024/03/27 13:44:03;;;;;;;;;;;16.00;75.20;;;;;;5051352;28;19904;-73
2024/03/27 13:46:29;;;;;;;;;;;16.00;75.60;;;;;;5069248;28;19995;-73
2024/03/27 13:48:54;;;;;;;;;;;15.90;76.10;;;;;;5051259;28;20307;-73
2024/03/27 13:51:20;;;;;;;;;;;15.90;76.70;;;;;;5068884;28;20377;-74
2024/03/27 13:53:46;;;;;;;;;;;15.90;76.90;;;;;;5068720;28;20304;-74
2024/03/27 13:56:11;;;;;;;;;;;16.00;77.00;;;;;;5068799;28;19908;-73
2024/03/27 13:58:37;;;;;;;;;;;16.00;77.20;;;;;;5050393;28;19912;-73
2024/03/27 14:01:02;;;;;;;;;;;16.00;77.30;;;;;;5054703;28;19916;-73
2024/03/27 14:03:28;;;;;;;;;;;16.00;77.40;;;;;;5072680;28;19999;-74
2024/03/27 14:05:53;;;;;;;;;;;16.00;77.80;;;;;;5072318;28;20411;-73
2024/03/27 14:08:19;;;;;;;;;;;16.20;77.20;;;;;;5054607;28;20389;-73
2024/03/27 14:10:44;;;;;;;;;;;16.30;77.50;;;;;;5054270;28;19956;-73